sensor_id;sensor_type;location;lat;lon;timestamp;P1;durP1;ratioP1;P2;durP2;ratioP2
72427;SDS011;60419;48.880;18.036;2023-04-24T00:00:33;6.47;;;3.20;;
72427;SDS011;60419;48.880;18.036;2023-04-24T00:03:18;4.65;;;3.10;;
72427;SDS011;60419;48.880;18.036;2023-04-24T00:06:05;6.78;;;3.33;;
72427;SDS011;60419;48.880;18.036;2023-04-24T00:08:53;4.75;;;2.88;;
72427;SDS011;60419;48.880;18.036;2023-04-24T00:11:38;8.73;;;3.33;;
72427;SDS011;60419;48.880;18.036;2023-04-24T00:14:23;5.47;;;3.22;;
72427;SDS011;60419;48.880;18.036;2023-04-24T00:17:09;5.57;;;3.17;;
72427;SDS011;60419;48.880;18.036;2023-04-24T00:19:54;5.60;;;2.97;;
72427;SDS011;60419;48.880;18.036;2023-04-24T00:22:49;5.30;;;3.20;;
72427;SDS011;60419;48.880;18.036;2023-04-24T00:25:34;6.75;;;3.22;;
72427;SDS011;60419;48.880;18.036;2023-04-24T00:28:20;4.70;;;2.83;;
72427;SDS011;60419;48.880;18.036;2023-04-24T00:31:05;5.35;;;3.47;;
72427;SDS011;60419;48.880;18.036;2023-04-24T00:33:51;7.82;;;3.47;;
72427;SDS011;60419;48.880;18.036;2023-04-24T00:36:36;5.50;;;3.00;;
72427;SDS011;60419;48.880;18.036;2023-04-24T00:39:22;4.78;;;2.88;;
72427;SDS011;60419;48.880;18.036;2023-04-24T00:42:07;6.72;;;3.40;;
72427;SDS011;60419;48.880;18.036;2023-04-24T00:44:53;4.18;;;2.92;;
72427;SDS011;60419;48.880;18.036;2023-04-24T00:47:38;5.32;;;2.80;;
72427;SDS011;60419;48.880;18.036;2023-04-24T00:50:24;6.32;;;3.40;;
72427;SDS011;60419;48.880;18.036;2023-04-24T00:53:10;6.18;;;3.33;;
72427;SDS011;60419;48.880;18.036;2023-04-24T00:55:55;4.63;;;3.13;;
72427;SDS011;60419;48.880;18.036;2023-04-24T00:58:42;6.35;;;3.00;;
72427;SDS011;60419;48.880;18.036;2023-04-24T01:01:28;4.95;;;3.15;;
72427;SDS011;60419;48.880;18.036;2023-04-24T01:04:13;5.38;;;3.35;;
72427;SDS011;60419;48.880;18.036;2023-04-24T01:06:59;5.38;;;3.20;;
72427;SDS011;60419;48.880;18.036;2023-04-24T01:09:45;6.85;;;3.35;;
72427;SDS011;60419;48.880;18.036;2023-04-24T01:12:33;4.53;;;2.97;;
72427;SDS011;60419;48.880;18.036;2023-04-24T01:15:19;5.47;;;3.03;;
72427;SDS011;60419;48.880;18.036;2023-04-24T01:18:05;6.10;;;3.10;;
72427;SDS011;60419;48.880;18.036;2023-04-24T01:20:51;4.82;;;3.38;;
72427;SDS011;60419;48.880;18.036;2023-04-24T01:23:38;6.22;;;2.95;;
72427;SDS011;60419;48.880;18.036;2023-04-24T01:26:25;4.88;;;2.83;;
72427;SDS011;60419;48.880;18.036;2023-04-24T01:29:10;5.47;;;3.22;;
72427;SDS011;60419;48.880;18.036;2023-04-24T01:31:56;4.90;;;3.05;;
72427;SDS011;60419;48.880;18.036;2023-04-24T01:34:43;4.60;;;2.95;;
72427;SDS011;60419;48.880;18.036;2023-04-24T01:37:29;7.15;;;3.10;;
72427;SDS011;60419;48.880;18.036;2023-04-24T01:40:17;5.10;;;3.38;;
72427;SDS011;60419;48.880;18.036;2023-04-24T01:43:02;6.10;;;3.03;;
72427;SDS011;60419;48.880;18.036;2023-04-24T01:45:48;4.93;;;3.25;;
72427;SDS011;60419;48.880;18.036;2023-04-24T01:48:33;5.65;;;3.58;;
72427;SDS011;60419;48.880;18.036;2023-04-24T01:51:19;5.03;;;2.95;;
72427;SDS011;60419;48.880;18.036;2023-04-24T01:54:04;6.53;;;3.17;;
72427;SDS011;60419;48.880;18.036;2023-04-24T01:56:50;6.75;;;3.17;;
72427;SDS011;60419;48.880;18.036;2023-04-24T01:59:36;5.03;;;3.10;;
72427;SDS011;60419;48.880;18.036;2023-04-24T02:02:21;4.50;;;3.20;;
72427;SDS011;60419;48.880;18.036;2023-04-24T02:05:08;6.93;;;3.20;;
72427;SDS011;60419;48.880;18.036;2023-04-24T02:07:54;5.53;;;3.10;;
72427;SDS011;60419;48.880;18.036;2023-04-24T02:10:40;6.38;;;3.13;;
72427;SDS011;60419;48.880;18.036;2023-04-24T02:13:25;7.13;;;3.53;;
72427;SDS011;60419;48.880;18.036;2023-04-24T02:16:10;5.43;;;3.08;;
72427;SDS011;60419;48.880;18.036;2023-04-24T02:18:56;5.28;;;3.25;;
72427;SDS011;60419;48.880;18.036;2023-04-24T02:21:41;5.28;;;3.30;;
72427;SDS011;60419;48.880;18.036;2023-04-24T02:24:26;5.43;;;3.03;;
72427;SDS011;60419;48.880;18.036;2023-04-24T02:27:12;5.63;;;3.15;;
72427;SDS011;60419;48.880;18.036;2023-04-24T02:29:57;7.10;;;3.40;;
72427;SDS011;60419;48.880;18.036;2023-04-24T02:32:43;4.93;;;3.28;;
72427;SDS011;60419;48.880;18.036;2023-04-24T02:35:28;8.55;;;3.28;;
72427;SDS011;60419;48.880;18.036;2023-04-24T02:38:14;6.10;;;3.40;;
72427;SDS011;60419;48.880;18.036;2023-04-24T02:41:00;6.78;;;3.53;;
72427;SDS011;60419;48.880;18.036;2023-04-24T02:43:46;10.07;;;3.55;;
72427;SDS011;60419;48.880;18.036;2023-04-24T02:46:32;5.18;;;3.35;;
72427;SDS011;60419;48.880;18.036;2023-04-24T02:49:17;5.55;;;3.83;;
72427;SDS011;60419;48.880;18.036;2023-04-24T02:52:03;5.75;;;3.30;;
72427;SDS011;60419;48.880;18.036;2023-04-24T02:54:48;5.68;;;3.30;;
72427;SDS011;60419;48.880;18.036;2023-04-24T02:57:33;8.18;;;3.45;;
72427;SDS011;60419;48.880;18.036;2023-04-24T03:00:19;6.43;;;3.58;;
72427;SDS011;60419;48.880;18.036;2023-04-24T03:03:04;8.57;;;3.75;;
72427;SDS011;60419;48.880;18.036;2023-04-24T03:05:50;5.88;;;3.50;;
72427;SDS011;60419;48.880;18.036;2023-04-24T03:08:35;6.47;;;3.70;;
72427;SDS011;60419;48.880;18.036;2023-04-24T03:11:21;5.35;;;3.47;;
72427;SDS011;60419;48.880;18.036;2023-04-24T03:14:06;6.40;;;3.72;;
72427;SDS011;60419;48.880;18.036;2023-04-24T03:16:52;6.15;;;3.72;;
72427;SDS011;60419;48.880;18.036;2023-04-24T03:19:37;5.88;;;3.53;;
72427;SDS011;60419;48.880;18.036;2023-04-24T03:22:23;5.85;;;3.80;;
72427;SDS011;60419;48.880;18.036;2023-04-24T03:25:08;7.68;;;3.80;;
72427;SDS011;60419;48.880;18.036;2023-04-24T03:27:54;7.82;;;3.83;;
72427;SDS011;60419;48.880;18.036;2023-04-24T03:30:40;6.45;;;3.80;;
72427;SDS011;60419;48.880;18.036;2023-04-24T03:33:25;5.75;;;3.83;;
72427;SDS011;60419;48.880;18.036;2023-04-24T03:36:10;7.82;;;4.00;;
72427;SDS011;60419;48.880;18.036;2023-04-24T03:38:56;5.97;;;4.30;;
72427;SDS011;60419;48.880;18.036;2023-04-24T03:41:41;7.63;;;4.10;;
72427;SDS011;60419;48.880;18.036;2023-04-24T03:44:26;5.93;;;4.15;;
72427;SDS011;60419;48.880;18.036;2023-04-24T03:47:12;6.00;;;3.90;;
72427;SDS011;60419;48.880;18.036;2023-04-24T03:49:57;8.45;;;4.18;;
72427;SDS011;60419;48.880;18.036;2023-04-24T03:52:43;5.95;;;3.70;;
72427;SDS011;60419;48.880;18.036;2023-04-24T03:55:28;8.93;;;4.25;;
72427;SDS011;60419;48.880;18.036;2023-04-24T03:58:13;6.60;;;4.03;;
72427;SDS011;60419;48.880;18.036;2023-04-24T04:00:59;8.10;;;4.28;;
72427;SDS011;60419;48.880;18.036;2023-04-24T04:03:45;6.72;;;4.25;;
72427;SDS011;60419;48.880;18.036;2023-04-24T04:06:30;6.78;;;3.97;;
72427;SDS011;60419;48.880;18.036;2023-04-24T04:09:15;6.35;;;3.80;;
72427;SDS011;60419;48.880;18.036;2023-04-24T04:12:01;6.43;;;3.60;;
72427;SDS011;60419;48.880;18.036;2023-04-24T04:14:46;4.80;;;3.72;;
72427;SDS011;60419;48.880;18.036;2023-04-24T04:17:32;5.07;;;3.78;;
72427;SDS011;60419;48.880;18.036;2023-04-24T04:20:17;8.93;;;4.47;;
72427;SDS011;60419;48.880;18.036;2023-04-24T04:23:03;6.28;;;3.80;;
72427;SDS011;60419;48.880;18.036;2023-04-24T04:25:48;5.85;;;3.60;;
72427;SDS011;60419;48.880;18.036;2023-04-24T04:28:34;6.72;;;3.97;;
72427;SDS011;60419;48.880;18.036;2023-04-24T04:31:20;7.28;;;3.80;;
72427;SDS011;60419;48.880;18.036;2023-04-24T04:34:05;8.07;;;3.95;;
72427;SDS011;60419;48.880;18.036;2023-04-24T04:36:52;6.72;;;3.83;;
72427;SDS011;60419;48.880;18.036;2023-04-24T04:39:38;6.82;;;3.35;;
72427;SDS011;60419;48.880;18.036;2023-04-24T04:42:23;5.15;;;3.78;;
72427;SDS011;60419;48.880;18.036;2023-04-24T04:45:09;5.28;;;3.80;;
72427;SDS011;60419;48.880;18.036;2023-04-24T04:47:56;9.55;;;3.90;;
72427;SDS011;60419;48.880;18.036;2023-04-24T04:50:41;7.95;;;3.90;;
72427;SDS011;60419;48.880;18.036;2023-04-24T04:53:27;6.00;;;3.97;;
72427;SDS011;60419;48.880;18.036;2023-04-24T04:56:12;7.13;;;4.10;;
72427;SDS011;60419;48.880;18.036;2023-04-24T04:58:57;7.32;;;3.80;;
72427;SDS011;60419;48.880;18.036;2023-04-24T05:01:44;8.55;;;4.30;;
72427;SDS011;60419;48.880;18.036;2023-04-24T05:04:29;9.15;;;4.00;;
72427;SDS011;60419;48.880;18.036;2023-04-24T05:07:15;7.22;;;3.80;;
72427;SDS011;60419;48.880;18.036;2023-04-24T05:10:00;8.02;;;3.90;;
72427;SDS011;60419;48.880;18.036;2023-04-24T05:12:46;5.68;;;3.50;;
72427;SDS011;60419;48.880;18.036;2023-04-24T05:15:31;7.07;;;3.63;;
72427;SDS011;60419;48.880;18.036;2023-04-24T05:18:17;7.00;;;3.70;;
72427;SDS011;60419;48.880;18.036;2023-04-24T05:21:02;8.13;;;3.55;;
72427;SDS011;60419;48.880;18.036;2023-04-24T05:23:47;6.47;;;3.72;;
72427;SDS011;60419;48.880;18.036;2023-04-24T05:26:33;7.00;;;3.75;;
72427;SDS011;60419;48.880;18.036;2023-04-24T05:29:18;5.82;;;3.60;;
72427;SDS011;60419;48.880;18.036;2023-04-24T05:32:04;5.43;;;3.55;;
72427;SDS011;60419;48.880;18.036;2023-04-24T05:34:49;6.40;;;3.50;;
72427;SDS011;60419;48.880;18.036;2023-04-24T05:37:35;7.18;;;3.63;;
72427;SDS011;60419;48.880;18.036;2023-04-24T05:40:20;6.80;;;3.60;;
72427;SDS011;60419;48.880;18.036;2023-04-24T05:43:06;7.18;;;3.78;;
72427;SDS011;60419;48.880;18.036;2023-04-24T05:45:51;6.57;;;3.58;;
72427;SDS011;60419;48.880;18.036;2023-04-24T05:48:38;6.32;;;3.55;;
72427;SDS011;60419;48.880;18.036;2023-04-24T05:51:23;6.38;;;3.45;;
72427;SDS011;60419;48.880;18.036;2023-04-24T05:54:09;6.78;;;3.80;;
72427;SDS011;60419;48.880;18.036;2023-04-24T05:56:57;6.78;;;3.80;;
72427;SDS011;60419;48.880;18.036;2023-04-24T05:59:42;7.43;;;3.90;;
72427;SDS011;60419;48.880;18.036;2023-04-24T06:02:27;7.15;;;3.75;;
72427;SDS011;60419;48.880;18.036;2023-04-24T06:05:17;6.32;;;3.58;;
72427;SDS011;60419;48.880;18.036;2023-04-24T06:08:02;7.03;;;3.78;;
72427;SDS011;60419;48.880;18.036;2023-04-24T06:10:48;7.05;;;3.88;;
72427;SDS011;60419;48.880;18.036;2023-04-24T06:13:33;5.13;;;3.30;;
72427;SDS011;60419;48.880;18.036;2023-04-24T06:16:18;5.45;;;3.80;;
72427;SDS011;60419;48.880;18.036;2023-04-24T06:19:04;6.25;;;3.78;;
72427;SDS011;60419;48.880;18.036;2023-04-24T06:21:49;7.68;;;3.38;;
72427;SDS011;60419;48.880;18.036;2023-04-24T06:24:35;7.55;;;3.90;;
72427;SDS011;60419;48.880;18.036;2023-04-24T06:27:20;6.70;;;3.75;;
72427;SDS011;60419;48.880;18.036;2023-04-24T06:30:06;7.28;;;3.92;;
72427;SDS011;60419;48.880;18.036;2023-04-24T06:32:52;6.97;;;4.18;;
72427;SDS011;60419;48.880;18.036;2023-04-24T06:35:37;7.47;;;4.00;;
72427;SDS011;60419;48.880;18.036;2023-04-24T06:38:23;6.80;;;4.05;;
72427;SDS011;60419;48.880;18.036;2023-04-24T06:41:09;5.85;;;3.72;;
72427;SDS011;60419;48.880;18.036;2023-04-24T06:43:55;7.70;;;3.95;;
72427;SDS011;60419;48.880;18.036;2023-04-24T06:46:41;8.50;;;4.55;;
72427;SDS011;60419;48.880;18.036;2023-04-24T06:49:26;6.70;;;4.10;;
72427;SDS011;60419;48.880;18.036;2023-04-24T06:52:11;6.45;;;3.83;;
72427;SDS011;60419;48.880;18.036;2023-04-24T06:55:00;6.55;;;4.18;;
72427;SDS011;60419;48.880;18.036;2023-04-24T06:57:47;7.57;;;4.32;;
72427;SDS011;60419;48.880;18.036;2023-04-24T07:00:33;9.75;;;4.25;;
72427;SDS011;60419;48.880;18.036;2023-04-24T07:03:18;6.97;;;3.92;;
72427;SDS011;60419;48.880;18.036;2023-04-24T07:06:04;7.88;;;4.22;;
72427;SDS011;60419;48.880;18.036;2023-04-24T07:08:50;7.53;;;4.43;;
72427;SDS011;60419;48.880;18.036;2023-04-24T07:11:35;8.73;;;4.30;;
72427;SDS011;60419;48.880;18.036;2023-04-24T07:14:21;8.60;;;4.25;;
72427;SDS011;60419;48.880;18.036;2023-04-24T07:17:07;7.57;;;4.00;;
72427;SDS011;60419;48.880;18.036;2023-04-24T07:19:52;8.05;;;4.75;;
72427;SDS011;60419;48.880;18.036;2023-04-24T07:22:38;6.85;;;4.30;;
72427;SDS011;60419;48.880;18.036;2023-04-24T07:25:23;7.38;;;3.75;;
72427;SDS011;60419;48.880;18.036;2023-04-24T07:28:10;6.57;;;4.15;;
72427;SDS011;60419;48.880;18.036;2023-04-24T07:30:55;6.43;;;4.13;;
72427;SDS011;60419;48.880;18.036;2023-04-24T07:33:41;9.23;;;4.70;;
72427;SDS011;60419;48.880;18.036;2023-04-24T07:36:26;6.40;;;3.88;;
72427;SDS011;60419;48.880;18.036;2023-04-24T07:39:12;7.32;;;3.72;;
72427;SDS011;60419;48.880;18.036;2023-04-24T07:41:58;6.82;;;3.80;;
72427;SDS011;60419;48.880;18.036;2023-04-24T07:44:44;6.43;;;4.15;;
72427;SDS011;60419;48.880;18.036;2023-04-24T07:47:30;6.57;;;4.07;;
72427;SDS011;60419;48.880;18.036;2023-04-24T07:50:16;5.85;;;3.83;;
72427;SDS011;60419;48.880;18.036;2023-04-24T07:53:02;8.13;;;4.45;;
72427;SDS011;60419;48.880;18.036;2023-04-24T07:55:47;6.88;;;3.70;;
72427;SDS011;60419;48.880;18.036;2023-04-24T07:58:33;5.63;;;3.80;;
72427;SDS011;60419;48.880;18.036;2023-04-24T08:01:19;7.25;;;3.63;;
72427;SDS011;60419;48.880;18.036;2023-04-24T08:04:04;5.50;;;3.60;;
72427;SDS011;60419;48.880;18.036;2023-04-24T08:06:50;6.22;;;3.80;;
72427;SDS011;60419;48.880;18.036;2023-04-24T08:09:36;6.90;;;3.60;;
72427;SDS011;60419;48.880;18.036;2023-04-24T08:12:21;6.90;;;3.78;;
72427;SDS011;60419;48.880;18.036;2023-04-24T08:15:07;6.55;;;3.92;;
72427;SDS011;60419;48.880;18.036;2023-04-24T08:17:52;6.25;;;3.88;;
72427;SDS011;60419;48.880;18.036;2023-04-24T08:20:38;7.13;;;3.83;;
72427;SDS011;60419;48.880;18.036;2023-04-24T08:23:23;8.48;;;4.43;;
72427;SDS011;60419;48.880;18.036;2023-04-24T08:26:09;8.13;;;4.05;;
72427;SDS011;60419;48.880;18.036;2023-04-24T08:28:56;8.90;;;4.25;;
72427;SDS011;60419;48.880;18.036;2023-04-24T08:31:41;8.10;;;3.80;;
72427;SDS011;60419;48.880;18.036;2023-04-24T08:34:26;15.93;;;4.15;;
72427;SDS011;60419;48.880;18.036;2023-04-24T08:37:12;5.00;;;3.47;;
72427;SDS011;60419;48.880;18.036;2023-04-24T08:39:58;5.90;;;3.95;;
72427;SDS011;60419;48.880;18.036;2023-04-24T08:42:43;6.13;;;3.70;;
72427;SDS011;60419;48.880;18.036;2023-04-24T08:45:29;6.03;;;3.50;;
72427;SDS011;60419;48.880;18.036;2023-04-24T08:48:15;6.55;;;3.83;;
72427;SDS011;60419;48.880;18.036;2023-04-24T08:51:01;6.43;;;4.05;;
72427;SDS011;60419;48.880;18.036;2023-04-24T08:53:49;6.18;;;3.50;;
72427;SDS011;60419;48.880;18.036;2023-04-24T08:56:37;6.43;;;3.88;;
72427;SDS011;60419;48.880;18.036;2023-04-24T08:59:25;7.13;;;3.72;;
72427;SDS011;60419;48.880;18.036;2023-04-24T09:02:11;5.53;;;3.60;;
72427;SDS011;60419;48.880;18.036;2023-04-24T09:04:57;7.35;;;3.58;;
72427;SDS011;60419;48.880;18.036;2023-04-24T09:07:44;7.00;;;4.18;;
72427;SDS011;60419;48.880;18.036;2023-04-24T09:10:31;7.03;;;3.90;;
72427;SDS011;60419;48.880;18.036;2023-04-24T09:13:19;6.88;;;3.75;;
72427;SDS011;60419;48.880;18.036;2023-04-24T09:16:06;8.43;;;3.80;;
72427;SDS011;60419;48.880;18.036;2023-04-24T09:18:52;6.10;;;3.78;;
72427;SDS011;60419;48.880;18.036;2023-04-24T09:21:37;5.53;;;3.85;;
72427;SDS011;60419;48.880;18.036;2023-04-24T09:24:23;7.00;;;4.32;;
72427;SDS011;60419;48.880;18.036;2023-04-24T09:27:10;8.80;;;4.10;;
72427;SDS011;60419;48.880;18.036;2023-04-24T09:29:57;6.93;;;4.22;;
72427;SDS011;60419;48.880;18.036;2023-04-24T09:32:43;8.27;;;4.20;;
72427;SDS011;60419;48.880;18.036;2023-04-24T09:35:29;11.73;;;4.90;;
72427;SDS011;60419;48.880;18.036;2023-04-24T09:38:17;6.40;;;4.20;;
72427;SDS011;60419;48.880;18.036;2023-04-24T09:41:04;7.10;;;4.07;;
72427;SDS011;60419;48.880;18.036;2023-04-24T09:43:53;10.68;;;4.20;;
72427;SDS011;60419;48.880;18.036;2023-04-24T09:46:40;6.75;;;4.28;;
72427;SDS011;60419;48.880;18.036;2023-04-24T09:49:30;7.82;;;4.15;;
72427;SDS011;60419;48.880;18.036;2023-04-24T09:52:18;8.05;;;4.30;;
72427;SDS011;60419;48.880;18.036;2023-04-24T09:55:09;8.23;;;4.10;;
72427;SDS011;60419;48.880;18.036;2023-04-24T09:57:56;8.88;;;4.25;;
72427;SDS011;60419;48.880;18.036;2023-04-24T10:00:45;5.55;;;3.75;;
72427;SDS011;60419;48.880;18.036;2023-04-24T10:03:31;6.97;;;4.30;;
72427;SDS011;60419;48.880;18.036;2023-04-24T10:06:18;10.63;;;4.32;;
72427;SDS011;60419;48.880;18.036;2023-04-24T10:09:04;5.70;;;3.97;;
72427;SDS011;60419;48.880;18.036;2023-04-24T10:11:50;6.45;;;3.95;;
72427;SDS011;60419;48.880;18.036;2023-04-24T10:14:36;6.95;;;4.60;;
72427;SDS011;60419;48.880;18.036;2023-04-24T10:17:22;8.73;;;4.72;;
72427;SDS011;60419;48.880;18.036;2023-04-24T10:20:10;9.32;;;4.65;;
72427;SDS011;60419;48.880;18.036;2023-04-24T10:22:56;8.30;;;4.45;;
72427;SDS011;60419;48.880;18.036;2023-04-24T10:25:43;11.23;;;4.18;;
72427;SDS011;60419;48.880;18.036;2023-04-24T10:28:29;9.10;;;4.22;;
72427;SDS011;60419;48.880;18.036;2023-04-24T10:31:17;6.65;;;3.90;;
72427;SDS011;60419;48.880;18.036;2023-04-24T10:34:04;7.85;;;3.92;;
72427;SDS011;60419;48.880;18.036;2023-04-24T10:36:51;7.60;;;4.15;;
72427;SDS011;60419;48.880;18.036;2023-04-24T10:39:37;7.65;;;4.53;;
72427;SDS011;60419;48.880;18.036;2023-04-24T10:42:26;7.28;;;4.00;;
72427;SDS011;60419;48.880;18.036;2023-04-24T10:45:16;7.20;;;4.28;;
72427;SDS011;60419;48.880;18.036;2023-04-24T10:48:04;7.90;;;4.00;;
72427;SDS011;60419;48.880;18.036;2023-04-24T10:50:55;6.05;;;4.13;;
72427;SDS011;60419;48.880;18.036;2023-04-24T10:53:41;9.18;;;4.05;;
72427;SDS011;60419;48.880;18.036;2023-04-24T10:56:26;9.60;;;3.95;;
72427;SDS011;60419;48.880;18.036;2023-04-24T10:59:11;7.10;;;4.43;;
72427;SDS011;60419;48.880;18.036;2023-04-24T11:02:10;6.68;;;4.25;;
72427;SDS011;60419;48.880;18.036;2023-04-24T11:04:55;6.95;;;4.45;;
72427;SDS011;60419;48.880;18.036;2023-04-24T11:16:42;5.47;;;3.90;;
72427;SDS011;60419;48.880;18.036;2023-04-24T11:19:29;7.35;;;4.38;;
72427;SDS011;60419;48.880;18.036;2023-04-24T11:22:15;8.73;;;4.47;;
72427;SDS011;60419;48.880;18.036;2023-04-24T11:25:02;7.55;;;4.32;;
72427;SDS011;60419;48.880;18.036;2023-04-24T11:27:49;6.15;;;4.65;;
72427;SDS011;60419;48.880;18.036;2023-04-24T11:30:35;8.10;;;4.55;;
72427;SDS011;60419;48.880;18.036;2023-04-24T11:33:24;7.47;;;4.80;;
72427;SDS011;60419;48.880;18.036;2023-04-24T11:36:10;7.03;;;4.57;;
72427;SDS011;60419;48.880;18.036;2023-04-24T11:38:56;8.90;;;4.88;;
72427;SDS011;60419;48.880;18.036;2023-04-24T11:41:42;6.82;;;5.03;;
72427;SDS011;60419;48.880;18.036;2023-04-24T11:44:27;6.53;;;4.47;;
72427;SDS011;60419;48.880;18.036;2023-04-24T11:47:14;7.15;;;4.03;;
72427;SDS011;60419;48.880;18.036;2023-04-24T11:50:00;7.75;;;4.53;;
72427;SDS011;60419;48.880;18.036;2023-04-24T11:52:47;7.60;;;4.53;;
72427;SDS011;60419;48.880;18.036;2023-04-24T11:55:33;7.60;;;4.72;;
72427;SDS011;60419;48.880;18.036;2023-04-24T11:58:22;9.07;;;5.13;;
72427;SDS011;60419;48.880;18.036;2023-04-24T12:01:08;7.07;;;4.63;;
72427;SDS011;60419;48.880;18.036;2023-04-24T12:03:59;8.98;;;4.80;;
72427;SDS011;60419;48.880;18.036;2023-04-24T12:10:02;7.55;;;5.10;;
72427;SDS011;60419;48.880;18.036;2023-04-24T12:12:50;6.47;;;4.60;;
72427;SDS011;60419;48.880;18.036;2023-04-24T12:15:39;8.25;;;4.55;;
72427;SDS011;60419;48.880;18.036;2023-04-24T12:18:25;6.80;;;4.75;;
72427;SDS011;60419;48.880;18.036;2023-04-24T12:24:06;5.90;;;4.63;;
72427;SDS011;60419;48.880;18.036;2023-04-24T12:26:52;9.65;;;5.35;;
72427;SDS011;60419;48.880;18.036;2023-04-24T12:29:50;10.43;;;4.95;;
72427;SDS011;60419;48.880;18.036;2023-04-24T12:32:40;7.28;;;5.03;;
72427;SDS011;60419;48.880;18.036;2023-04-24T12:35:27;9.07;;;4.85;;
72427;SDS011;60419;48.880;18.036;2023-04-24T12:38:15;7.60;;;4.90;;
72427;SDS011;60419;48.880;18.036;2023-04-24T12:41:07;8.55;;;5.25;;
72427;SDS011;60419;48.880;18.036;2023-04-24T12:43:57;8.13;;;5.25;;
72427;SDS011;60419;48.880;18.036;2023-04-24T12:46:42;10.60;;;4.97;;
72427;SDS011;60419;48.880;18.036;2023-04-24T12:52:15;8.25;;;5.55;;
72427;SDS011;60419;48.880;18.036;2023-04-24T12:55:00;9.25;;;5.32;;
72427;SDS011;60419;48.880;18.036;2023-04-24T12:57:46;10.75;;;5.82;;
72427;SDS011;60419;48.880;18.036;2023-04-24T13:00:32;11.15;;;6.00;;
72427;SDS011;60419;48.880;18.036;2023-04-24T13:03:17;10.13;;;6.03;;
72427;SDS011;60419;48.880;18.036;2023-04-24T13:06:03;11.05;;;7.50;;
72427;SDS011;60419;48.880;18.036;2023-04-24T13:08:48;9.20;;;6.20;;
72427;SDS011;60419;48.880;18.036;2023-04-24T13:11:34;7.70;;;5.68;;
72427;SDS011;60419;48.880;18.036;2023-04-24T13:14:20;8.98;;;6.10;;
72427;SDS011;60419;48.880;18.036;2023-04-24T13:17:05;9.75;;;6.18;;
72427;SDS011;60419;48.880;18.036;2023-04-24T13:19:54;8.80;;;6.38;;
72427;SDS011;60419;48.880;18.036;2023-04-24T13:22:40;8.95;;;6.75;;
72427;SDS011;60419;48.880;18.036;2023-04-24T13:25:25;9.38;;;6.57;;
72427;SDS011;60419;48.880;18.036;2023-04-24T13:28:11;10.07;;;6.72;;
72427;SDS011;60419;48.880;18.036;2023-04-24T13:30:57;8.68;;;6.28;;
72427;SDS011;60419;48.880;18.036;2023-04-24T13:33:43;10.02;;;7.35;;
72427;SDS011;60419;48.880;18.036;2023-04-24T13:36:28;12.60;;;7.03;;
72427;SDS011;60419;48.880;18.036;2023-04-24T13:39:15;11.48;;;7.40;;
72427;SDS011;60419;48.880;18.036;2023-04-24T13:42:02;12.88;;;10.07;;
72427;SDS011;60419;48.880;18.036;2023-04-24T13:44:47;16.23;;;12.82;;
72427;SDS011;60419;48.880;18.036;2023-04-24T13:47:33;19.42;;;15.98;;
72427;SDS011;60419;48.880;18.036;2023-04-24T13:50:18;20.95;;;15.88;;
72427;SDS011;60419;48.880;18.036;2023-04-24T13:53:04;24.92;;;17.75;;
72427;SDS011;60419;48.880;18.036;2023-04-24T13:55:50;24.73;;;18.98;;
72427;SDS011;60419;48.880;18.036;2023-04-24T13:58:35;27.50;;;20.60;;
72427;SDS011;60419;48.880;18.036;2023-04-24T14:01:22;28.52;;;20.17;;
72427;SDS011;60419;48.880;18.036;2023-04-24T14:04:11;27.02;;;19.63;;
72427;SDS011;60419;48.880;18.036;2023-04-24T14:06:57;25.10;;;19.63;;
72427;SDS011;60419;48.880;18.036;2023-04-24T14:09:42;25.77;;;19.50;;
72427;SDS011;60419;48.880;18.036;2023-04-24T14:12:27;24.85;;;19.25;;
72427;SDS011;60419;48.880;18.036;2023-04-24T14:15:13;23.02;;;17.80;;
72427;SDS011;60419;48.880;18.036;2023-04-24T14:17:58;22.40;;;18.08;;
72427;SDS011;60419;48.880;18.036;2023-04-24T14:20:44;24.00;;;18.90;;
72427;SDS011;60419;48.880;18.036;2023-04-24T14:23:29;23.10;;;18.73;;
72427;SDS011;60419;48.880;18.036;2023-04-24T14:26:15;27.02;;;18.67;;
72427;SDS011;60419;48.880;18.036;2023-04-24T14:29:00;19.33;;;16.92;;
72427;SDS011;60419;48.880;18.036;2023-04-24T14:31:46;23.00;;;18.05;;
72427;SDS011;60419;48.880;18.036;2023-04-24T14:34:31;21.65;;;16.92;;
72427;SDS011;60419;48.880;18.036;2023-04-24T14:37:16;19.30;;;16.40;;
72427;SDS011;60419;48.880;18.036;2023-04-24T14:40:02;21.45;;;16.77;;
72427;SDS011;60419;48.880;18.036;2023-04-24T14:42:50;22.38;;;17.35;;
72427;SDS011;60419;48.880;18.036;2023-04-24T14:45:36;18.88;;;15.73;;
72427;SDS011;60419;48.880;18.036;2023-04-24T14:48:22;20.58;;;16.00;;
72427;SDS011;60419;48.880;18.036;2023-04-24T14:51:08;26.42;;;17.83;;
72427;SDS011;60419;48.880;18.036;2023-04-24T14:53:53;21.55;;;17.08;;
72427;SDS011;60419;48.880;18.036;2023-04-24T14:56:38;21.88;;;17.73;;
72427;SDS011;60419;48.880;18.036;2023-04-24T14:59:25;22.08;;;18.17;;
72427;SDS011;60419;48.880;18.036;2023-04-24T15:02:12;25.75;;;17.95;;
72427;SDS011;60419;48.880;18.036;2023-04-24T15:04:57;22.95;;;17.27;;
72427;SDS011;60419;48.880;18.036;2023-04-24T15:07:43;23.00;;;17.48;;
72427;SDS011;60419;48.880;18.036;2023-04-24T15:10:30;21.30;;;16.75;;
72427;SDS011;60419;48.880;18.036;2023-04-24T15:13:15;24.13;;;17.05;;
72427;SDS011;60419;48.880;18.036;2023-04-24T15:16:01;21.55;;;16.17;;
72427;SDS011;60419;48.880;18.036;2023-04-24T15:18:47;20.17;;;15.23;;
72427;SDS011;60419;48.880;18.036;2023-04-24T15:21:32;20.65;;;16.05;;
72427;SDS011;60419;48.880;18.036;2023-04-24T15:24:18;19.27;;;15.25;;
72427;SDS011;60419;48.880;18.036;2023-04-24T15:27:03;21.15;;;17.08;;
72427;SDS011;60419;48.880;18.036;2023-04-24T15:29:48;22.42;;;16.70;;
72427;SDS011;60419;48.880;18.036;2023-04-24T15:32:34;23.40;;;16.40;;
72427;SDS011;60419;48.880;18.036;2023-04-24T15:35:19;21.73;;;16.88;;
72427;SDS011;60419;48.880;18.036;2023-04-24T15:38:04;20.92;;;16.40;;
72427;SDS011;60419;48.880;18.036;2023-04-24T15:40:50;21.95;;;17.80;;
72427;SDS011;60419;48.880;18.036;2023-04-24T15:43:36;22.85;;;17.38;;
72427;SDS011;60419;48.880;18.036;2023-04-24T15:46:23;20.95;;;16.65;;
72427;SDS011;60419;48.880;18.036;2023-04-24T15:49:09;21.55;;;17.08;;
72427;SDS011;60419;48.880;18.036;2023-04-24T15:51:55;22.42;;;17.02;;
72427;SDS011;60419;48.880;18.036;2023-04-24T15:54:40;23.48;;;18.70;;
72427;SDS011;60419;48.880;18.036;2023-04-24T15:57:26;23.45;;;18.45;;
72427;SDS011;60419;48.880;18.036;2023-04-24T16:00:11;22.85;;;18.33;;
72427;SDS011;60419;48.880;18.036;2023-04-24T16:02:57;25.90;;;19.50;;
72427;SDS011;60419;48.880;18.036;2023-04-24T16:05:43;22.88;;;17.92;;
72427;SDS011;60419;48.880;18.036;2023-04-24T16:08:29;21.75;;;18.05;;
72427;SDS011;60419;48.880;18.036;2023-04-24T16:11:14;22.52;;;18.70;;
72427;SDS011;60419;48.880;18.036;2023-04-24T16:14:00;16.95;;;13.38;;
72427;SDS011;60419;48.880;18.036;2023-04-24T16:16:45;13.50;;;10.10;;
72427;SDS011;60419;48.880;18.036;2023-04-24T16:19:31;10.25;;;7.75;;
72427;SDS011;60419;48.880;18.036;2023-04-24T16:22:17;9.70;;;7.65;;
72427;SDS011;60419;48.880;18.036;2023-04-24T16:25:03;8.32;;;5.82;;
72427;SDS011;60419;48.880;18.036;2023-04-24T16:27:49;7.80;;;5.50;;
72427;SDS011;60419;48.880;18.036;2023-04-24T16:30:36;7.35;;;5.63;;
72427;SDS011;60419;48.880;18.036;2023-04-24T16:33:23;7.38;;;6.15;;
72427;SDS011;60419;48.880;18.036;2023-04-24T16:36:10;6.75;;;5.25;;
72427;SDS011;60419;48.880;18.036;2023-04-24T16:38:57;9.10;;;5.88;;